Esslingen-Jägerhaus Airfield

DE-0279 · 巴登-符腾堡, 德国

罗盘
风向 的 风向 030°
风: 3 kt, 1 beaufort

添加一条跑道以查看侧风和逆风信息。

添置 跑道
0 1.000 2.000 3.000 4.000 5.000
FEW 700 ft
BKN 1.700 ft
OVC 2.900 ft
METAR EDDS 030220Z AUTO 03003KT 9999 FEW007 BKN017 OVC029 02/01 Q1017

METAR Esslingen-Jägerhaus Airfield - DE-0279

Esslingen-Jägerhaus Airfield是,德国中的小机场。 视场标高为1.625 ft。 该领域的国际民航组织标志是DE-0279.

这份报告是针对2022年12月3日 03:20, 当地时间在Stuttgart Airport进行的。

机场观察

风向为030°,速度为3 kt。

可见度为10 km 或者更多。

有几云在700 ft的高度, 碎云在1.700 ft的高度 和 乌云密布在2.900 ft的高度。 破损或更高的上限为1.700 ft。

温度为2 °C,阵风为-1 °C。 露点为1 °C,相对湿度为93%。 海平面上的气压为1017 hPa (QNH)。

白天

今天,太阳从07:56升起,在16:28降落。 这适用于Esslingen-Jägerhaus Airfield,世界夏令时可能有所不同。 当地时间与世界标准时间之间的时差为+1 小时。 当前,没有夏令时有效。

公司介绍

我们没有关于这个机场的公司信息。

体会

到Vliegles.nl去找飞行课程,跳伞和其他飞行体验。 浏览页面,了解Esslingen-Jägerhaus Airfield附近所有可用的活动。 你也可以使用搜索功能来寻找你所在地附近的特定飞行课程、跳伞或其他飞行体验。

乌云

700 ft FEW 几云
1.700 ft BKN 碎云
2.900 ft OVC 乌云密布

温度 & 天气

温度 2 °C
露点 1 °C
相对湿度 93%
风寒 -1 °C
Kp-index 2 (0-9)

白天

日出
07:56 (4:00)
中午
12:12
日落
16:28

小工具

你想在你的网站上有一个关于Esslingen-Jägerhaus Airfield的当前航空天气(METAR)的小部件吗?

显示HTML代码

我们和第三方通过cookies跟踪您在我们网站上的互联网行为。如果你继续,我们认为你同意我们的饼干政策